createdAt,value
2022-09-05T00:03:03.602Z,49.10
2022-09-05T00:06:02.623Z,49.30
2022-09-05T00:09:00.612Z,49.20
2022-09-05T00:11:44.061Z,49.10
2022-09-05T00:14:34.217Z,49.40
2022-09-05T00:17:45.857Z,49.30
2022-09-05T00:24:26.076Z,49.30
2022-09-05T00:24:35.630Z,49.40
2022-09-05T00:27:17.583Z,49.40
2022-09-05T00:31:06.625Z,49.40
2022-09-05T00:33:40.391Z,49.40
2022-09-05T00:36:34.299Z,49.50
2022-09-05T00:39:06.341Z,49.50
2022-09-05T00:41:34.459Z,49.60
2022-09-05T00:44:02.982Z,49.70
2022-09-05T00:46:34.816Z,49.80
2022-09-05T00:49:11.282Z,49.80
2022-09-05T00:54:26.817Z,49.90
2022-09-05T00:57:30.594Z,50.20
2022-09-05T01:00:07.431Z,50.20
2022-09-05T01:03:12.186Z,50.20
2022-09-05T01:05:50.857Z,50.20
2022-09-05T01:09:07.564Z,50.30
2022-09-05T01:12:00.924Z,50.20
2022-09-05T01:14:46.755Z,50.40
2022-09-05T01:17:37.609Z,50.40
2022-09-05T01:20:31.381Z,50.40
2022-09-05T01:23:22.934Z,50.50
2022-09-05T01:26:31.972Z,50.60
2022-09-05T01:29:15.254Z,50.80
2022-09-05T01:34:29.634Z,50.90
2022-09-05T01:37:32.765Z,50.80
2022-09-05T01:40:16.054Z,50.80
2022-09-05T01:42:51.070Z,50.80
2022-09-05T01:45:34.975Z,51.00
2022-09-05T01:48:41.017Z,51.20
2022-09-05T01:51:28.877Z,51.10
2022-09-05T01:54:24.100Z,51.30
2022-09-05T01:57:05.301Z,51.20
2022-09-05T01:59:48.156Z,51.30
2022-09-05T02:02:20.745Z,51.30
2022-09-05T02:05:05.517Z,51.30
2022-09-05T02:07:58.946Z,51.30
2022-09-05T02:10:25.845Z,51.30
2022-09-05T02:13:12.511Z,51.30
2022-09-05T02:15:59.832Z,51.30
2022-09-05T02:18:47.494Z,51.30
2022-09-05T02:21:56.326Z,51.30
2022-09-05T02:24:35.710Z,51.30
2022-09-05T02:28:04.650Z,51.30
2022-09-05T02:30:26.444Z,51.30
2022-09-05T02:33:32.218Z,51.30
2022-09-05T02:36:25.456Z,51.40
2022-09-05T02:41:01.179Z,51.50
2022-09-05T02:45:14.210Z,51.60
2022-09-05T02:45:19.572Z,51.60
2022-09-05T02:48:16.252Z,51.90
2022-09-05T02:56:18.533Z,51.90
2022-09-05T02:57:42.127Z,52.00
2022-09-05T02:58:05.702Z,52.10
2022-09-05T03:00:23.796Z,52.00
2022-09-05T03:03:39.257Z,52.10
2022-09-05T03:06:35.463Z,52.00
2022-09-05T03:12:29.522Z,52.10
2022-09-05T03:15:33.040Z,52.10
2022-09-05T03:18:28.561Z,52.30
2022-09-05T03:21:25.883Z,52.40
2022-09-05T03:24:25.936Z,52.40
2022-09-05T03:27:10.770Z,52.50
2022-09-05T03:29:48.350Z,52.60
2022-09-05T03:35:10.473Z,52.60
2022-09-05T03:37:54.281Z,52.70
2022-09-05T03:40:36.428Z,52.70
2022-09-05T03:43:25.980Z,52.60
2022-09-05T03:46:16.057Z,52.70
2022-09-05T03:51:07.930Z,52.80
2022-09-05T03:57:27.375Z,52.80
2022-09-05T03:57:28.307Z,52.90
2022-09-05T03:58:57.437Z,52.90
2022-09-05T04:02:59.964Z,52.90
2022-09-05T04:08:17.421Z,52.90
2022-09-05T04:08:26.111Z,52.90
2022-09-05T04:10:45.769Z,52.80
2022-09-05T04:13:28.765Z,52.80
2022-09-05T04:16:09.926Z,52.90
2022-09-05T04:18:45.712Z,53.10
2022-09-05T04:24:01.483Z,53.20
2022-09-05T04:27:04.194Z,53.10
2022-09-05T04:30:01.931Z,53.10
2022-09-05T04:35:18.545Z,53.30
2022-09-05T04:37:56.468Z,53.30
2022-09-05T04:40:47.153Z,53.60
2022-09-05T04:43:28.013Z,53.50
2022-09-05T04:46:02.083Z,53.60
2022-09-05T04:48:38.040Z,53.80
2022-09-05T04:51:11.691Z,53.80
2022-09-05T04:54:21.104Z,53.70
2022-09-05T04:56:53.004Z,53.70
2022-09-05T05:02:12.757Z,53.80
2022-09-05T05:06:09.237Z,53.70
2022-09-05T05:06:15.484Z,53.70
2022-09-05T05:09:04.211Z,53.80
2022-09-05T05:17:56.419Z,53.80
2022-09-05T05:18:09.261Z,54.00
2022-09-05T05:18:09.262Z,54.00
2022-09-05T05:20:49.255Z,54.20
2022-09-05T05:23:18.802Z,54.30
2022-09-05T05:25:54.976Z,54.30
2022-09-05T05:28:46.750Z,54.50
2022-09-05T05:31:30.723Z,54.50
2022-09-05T05:34:24.455Z,54.60
2022-09-05T05:37:15.958Z,54.60
2022-09-05T05:39:48.493Z,54.80
2022-09-05T05:42:24.235Z,54.90
2022-09-05T05:44:57.438Z,54.90
2022-09-05T05:47:31.715Z,55.00
2022-09-05T05:50:21.589Z,55.10
2022-09-05T05:53:33.519Z,55.20
2022-09-05T05:56:32.869Z,55.30
2022-09-05T05:59:22.626Z,55.40
2022-09-05T06:02:16.664Z,55.30
2022-09-05T06:05:14.481Z,55.50
2022-09-05T06:09:32.396Z,55.50
2022-09-05T06:14:57.753Z,55.50
2022-09-05T06:15:08.722Z,55.60
2022-09-05T06:17:53.675Z,55.60
2022-09-05T06:22:10.456Z,55.70
2022-09-05T06:23:59.138Z,55.60
2022-09-05T06:26:45.811Z,55.80
2022-09-05T06:29:21.313Z,55.70
2022-09-05T06:32:08.610Z,55.90
2022-09-05T06:34:47.278Z,55.90
2022-09-05T06:37:33.138Z,55.90
2022-09-05T06:40:31.567Z,56.00
2022-09-05T06:43:10.691Z,56.00
2022-09-05T06:45:49.297Z,56.00
2022-09-05T06:49:32.414Z,56.00
2022-09-05T06:52:16.598Z,55.90
2022-09-05T06:55:04.774Z,55.80
2022-09-05T07:05:39.826Z,55.90
2022-09-05T07:13:57.544Z,55.60
2022-09-05T07:16:37.875Z,55.40
2022-09-05T07:19:25.886Z,55.40
2022-09-05T07:22:46.721Z,55.40
2022-09-05T07:25:10.671Z,55.40
2022-09-05T07:28:27.008Z,55.40
2022-09-05T07:30:52.041Z,55.50
2022-09-05T07:33:27.539Z,55.70
2022-09-05T07:36:04.053Z,55.60
2022-09-05T07:38:45.538Z,55.40
2022-09-05T07:41:26.864Z,55.30
2022-09-05T07:44:03.132Z,55.20
2022-09-05T07:46:38.487Z,55.20
2022-09-05T07:49:09.396Z,55.10
2022-09-05T07:56:53.093Z,54.90
2022-09-05T07:57:10.465Z,54.90
2022-09-05T07:57:32.314Z,54.80
2022-09-05T08:00:25.546Z,54.70
2022-09-05T08:05:34.344Z,54.50
2022-09-05T08:08:05.045Z,54.30
2022-09-05T08:11:23.217Z,54.30
2022-09-05T08:13:47.238Z,54.20
2022-09-05T08:16:19.417Z,54.20
2022-09-05T08:19:04.479Z,54.20
2022-09-05T08:21:43.831Z,54.20
2022-09-05T08:24:27.057Z,54.10
2022-09-05T08:27:16.771Z,54.00
2022-09-05T08:32:21.144Z,53.70
2022-09-05T08:34:54.486Z,53.60
2022-09-05T08:37:25.800Z,53.50
2022-09-05T08:40:10.233Z,53.40
2022-09-05T08:46:37.993Z,53.30
2022-09-05T08:46:39.704Z,53.10
2022-09-05T08:49:53.998Z,53.00
2022-09-05T08:52:48.965Z,53.00
2022-09-05T08:55:36.534Z,52.80
2022-09-05T08:58:18.459Z,52.60
2022-09-05T09:01:17.201Z,52.50
2022-09-05T09:04:05.958Z,52.50
2022-09-05T09:07:09.474Z,52.40
2022-09-05T09:09:58.059Z,52.30
2022-09-05T09:17:38.028Z,52.00
2022-09-05T09:20:10.681Z,51.90
2022-09-05T09:25:16.009Z,51.00
2022-09-05T09:28:46.857Z,51.60
2022-09-05T09:31:12.477Z,51.60
2022-09-05T09:33:45.754Z,51.50
2022-09-05T09:36:47.768Z,51.40
2022-09-05T09:39:42.375Z,51.40
2022-09-05T09:42:32.444Z,51.40
2022-09-05T09:45:22.581Z,51.30
2022-09-05T09:48:11.163Z,51.30
2022-09-05T09:50:59.289Z,51.20
2022-09-05T09:53:49.753Z,51.00
2022-09-05T09:56:19.579Z,50.70
2022-09-05T09:58:49.420Z,50.70
2022-09-05T10:01:40.484Z,50.60
2022-09-05T10:10:37.945Z,50.50
2022-09-05T10:11:09.344Z,50.50
2022-09-05T10:14:29.086Z,50.00
2022-09-05T10:17:38.274Z,49.80
2022-09-05T10:23:21.499Z,49.40
2022-09-05T10:26:03.313Z,49.30
2022-09-05T10:37:52.032Z,48.20
2022-09-05T10:45:38.160Z,48.10
2022-09-05T10:51:00.699Z,47.50
2022-09-05T11:17:35.872Z,46.40
2022-09-05T11:30:47.253Z,46.20
2022-09-05T11:44:43.741Z,45.30
2022-09-05T11:53:12.588Z,44.50
2022-09-05T11:56:16.575Z,44.10
2022-09-05T12:05:47.597Z,43.00
2022-09-05T12:16:27.046Z,41.80
2022-09-05T12:19:18.774Z,42.40
2022-09-05T12:30:15.129Z,41.50
2022-09-05T12:36:02.804Z,41.00
2022-09-05T12:44:44.919Z,40.30
2022-09-05T13:22:22.769Z,39.00
2022-09-05T13:25:05.167Z,37.60
2022-09-05T13:27:39.592Z,38.30
2022-09-05T13:38:14.174Z,37.20
2022-09-05T13:44:26.573Z,35.60
2022-09-05T13:57:51.165Z,32.70
2022-09-05T14:00:29.005Z,32.20
2022-09-05T14:16:34.064Z,29.70
2022-09-05T14:30:02.580Z,28.20
2022-09-05T15:02:42.334Z,27.70
2022-09-05T15:41:02.316Z,25.10
2022-09-05T16:23:55.482Z,23.00
2022-09-05T16:32:02.359Z,22.40
2022-09-05T16:42:16.184Z,21.50
2022-09-05T16:52:17.330Z,21.50
2022-09-05T17:07:49.473Z,22.10
2022-09-05T17:10:19.906Z,22.10
2022-09-05T17:12:54.734Z,22.10
2022-09-05T17:15:26.116Z,22.10
2022-09-05T17:18:21.610Z,22.60
2022-09-05T17:20:48.703Z,22.80
2022-09-05T17:29:17.405Z,23.10
2022-09-05T17:29:31.919Z,23.20
2022-09-05T17:32:47.691Z,23.80
2022-09-05T17:35:17.350Z,24.00
2022-09-05T17:40:32.705Z,24.50
2022-09-05T17:45:29.814Z,25.00
2022-09-05T17:47:59.886Z,25.20
2022-09-05T17:58:49.388Z,26.10
2022-09-05T18:01:21.224Z,26.30
2022-09-05T18:06:52.841Z,26.60
2022-09-05T18:09:47.924Z,26.90
2022-09-05T18:13:12.415Z,27.00
2022-09-05T18:15:27.407Z,27.20
2022-09-05T18:20:40.757Z,27.40
2022-09-05T18:23:18.289Z,27.60
2022-09-05T18:26:20.835Z,27.60
2022-09-05T18:28:50.613Z,27.90
2022-09-05T18:31:40.845Z,26.40
2022-09-05T18:34:21.136Z,28.20
2022-09-05T18:36:50.612Z,28.30
2022-09-05T18:39:24.498Z,28.30
2022-09-05T18:42:33.388Z,28.50
2022-09-05T18:45:14.825Z,28.60
2022-09-05T18:47:51.061Z,28.70
2022-09-05T18:50:28.776Z,29.00
2022-09-05T18:53:09.671Z,29.10
2022-09-05T18:56:10.248Z,29.50
2022-09-05T18:58:34.574Z,29.80
2022-09-05T19:01:28.433Z,29.90
2022-09-05T19:04:08.194Z,29.80
2022-09-05T19:06:45.235Z,29.90
2022-09-05T19:09:26.736Z,30.10
2022-09-05T19:14:55.033Z,30.60
2022-09-05T19:23:10.625Z,31.20
2022-09-05T19:37:29.752Z,32.20
2022-09-05T19:47:35.726Z,32.70
2022-09-05T19:47:38.548Z,32.60
2022-09-05T19:48:32.851Z,32.90
2022-09-05T19:51:16.283Z,33.20
2022-09-05T19:53:54.061Z,33.30
2022-09-05T19:56:40.938Z,33.40
2022-09-05T19:59:24.206Z,34.10
2022-09-05T20:01:53.062Z,33.10
2022-09-05T20:04:21.643Z,33.50
2022-09-05T20:06:50.237Z,33.50
2022-09-05T20:09:25.170Z,33.80
2022-09-05T20:11:54.891Z,33.90
2022-09-05T20:14:30.298Z,33.90
2022-09-05T20:17:18.229Z,34.10
2022-09-05T20:22:48.955Z,34.50
2022-09-05T20:25:19.855Z,34.70
2022-09-05T20:30:34.786Z,34.80
2022-09-05T20:33:09.653Z,35.00
2022-09-05T20:42:24.841Z,35.00
2022-09-05T20:43:17.606Z,35.10
2022-09-05T20:43:18.016Z,35.00
2022-09-05T20:49:44.874Z,35.30
2022-09-05T20:54:09.692Z,35.60
2022-09-05T20:54:15.842Z,35.70
2022-09-05T20:58:15.436Z,35.80
2022-09-05T21:01:17.459Z,36.00
2022-09-05T21:03:40.948Z,36.00
2022-09-05T21:06:33.282Z,36.00
2022-09-05T21:09:25.457Z,36.20
2022-09-05T21:11:58.877Z,36.30
2022-09-05T21:14:28.916Z,36.50
2022-09-05T21:17:15.311Z,37.00
2022-09-05T21:27:24.493Z,36.90
2022-09-05T21:29:58.872Z,36.90
2022-09-05T21:32:36.130Z,36.90
2022-09-05T21:35:15.427Z,37.20
2022-09-05T21:37:53.727Z,37.50
2022-09-05T21:47:48.487Z,37.50
2022-09-05T21:48:23.867Z,37.60
2022-09-05T21:50:56.769Z,37.60
2022-09-05T21:59:25.235Z,37.90
2022-09-05T21:59:36.801Z,37.80
2022-09-05T22:04:40.961Z,37.80
2022-09-05T22:07:14.331Z,37.90
2022-09-05T22:12:26.953Z,38.10
2022-09-05T22:17:25.837Z,38.30
2022-09-05T22:19:53.105Z,38.20
2022-09-05T22:22:20.822Z,38.20
2022-09-05T22:24:55.670Z,38.40
2022-09-05T22:27:25.723Z,38.50
2022-09-05T22:32:33.807Z,38.80
2022-09-05T22:35:27.624Z,38.60
2022-09-05T22:38:10.556Z,38.50
2022-09-05T22:40:39.966Z,38.60
2022-09-05T22:43:08.828Z,38.70
2022-09-05T22:45:37.909Z,39.00
2022-09-05T22:48:10.843Z,39.40
2022-09-05T22:50:38.309Z,39.30
2022-09-05T22:55:39.195Z,39.30
2022-09-05T22:58:07.999Z,39.30
2022-09-05T23:00:34.889Z,39.20
2022-09-05T23:03:03.866Z,39.20
2022-09-05T23:05:32.233Z,39.20
2022-09-05T23:08:00.629Z,39.30
2022-09-05T23:10:28.902Z,39.30
2022-09-05T23:12:56.243Z,39.30
2022-09-05T23:15:23.837Z,39.40
2022-09-05T23:17:55.254Z,39.40
2022-09-05T23:20:23.201Z,39.60
2022-09-05T23:22:50.074Z,40.00
2022-09-05T23:30:12.771Z,39.90
2022-09-05T23:32:47.177Z,39.90
2022-09-05T23:35:14.921Z,40.00
2022-09-05T23:37:43.733Z,40.00
2022-09-05T23:40:13.528Z,40.00
2022-09-05T23:42:41.087Z,40.10
2022-09-05T23:45:09.100Z,40.10
2022-09-05T23:47:36.710Z,40.20
2022-09-05T23:50:04.354Z,40.20
2022-09-05T23:54:58.500Z,40.70
